createdAt,value
2018-04-26T00:00:42.472Z,15.61
2018-04-26T00:03:13.084Z,15.32
2018-04-26T00:05:43.657Z,15.25
2018-04-26T00:08:14.307Z,15.42
2018-04-26T00:10:44.706Z,15.49
2018-04-26T00:13:15.615Z,15.65
2018-04-26T00:15:45.995Z,15.72
2018-04-26T00:18:16.603Z,15.49
2018-04-26T00:20:47.334Z,15.57
2018-04-26T00:23:17.701Z,15.62
2018-04-26T00:25:48.780Z,15.31
2018-04-26T00:28:19.258Z,14.85
2018-04-26T00:30:49.747Z,15.02
2018-04-26T00:33:20.302Z,15.06
2018-04-26T00:35:51.152Z,15.20
2018-04-26T00:38:21.477Z,15.27
2018-04-26T00:40:52.992Z,15.29
2018-04-26T00:43:23.065Z,15.16
2018-04-26T00:45:54.581Z,14.90
2018-04-26T00:48:26.075Z,14.96
2018-04-26T00:50:56.595Z,15.03
2018-04-26T00:53:26.990Z,14.96
2018-04-26T00:55:57.589Z,14.95
2018-04-26T00:58:28.085Z,15.05
2018-04-26T01:00:58.784Z,14.93
2018-04-26T01:03:29.835Z,14.89
2018-04-26T01:06:01.679Z,14.93
2018-04-26T01:08:32.709Z,15.00
2018-04-26T01:11:03.226Z,14.98
2018-04-26T01:13:33.731Z,14.94
2018-04-26T01:16:03.804Z,14.82
2018-04-26T01:18:34.376Z,14.50
2018-04-26T01:21:04.793Z,14.46
2018-04-26T01:23:35.125Z,14.49
2018-04-26T01:26:05.637Z,14.34
2018-04-26T01:28:36.435Z,14.26
2018-04-26T01:31:07.217Z,14.22
2018-04-26T01:33:38.219Z,14.09
2018-04-26T01:36:08.814Z,14.11
2018-04-26T01:38:39.636Z,14.05
2018-04-26T01:41:10.257Z,13.94
2018-04-26T01:43:40.785Z,13.72
2018-04-26T01:46:11.323Z,13.63
2018-04-26T01:48:42.049Z,13.68
2018-04-26T01:51:12.503Z,13.41
2018-04-26T01:53:43.311Z,13.25
2018-04-26T01:56:14.435Z,13.24
2018-04-26T01:58:44.277Z,13.46
2018-04-26T02:01:14.615Z,13.62
2018-04-26T02:03:45.222Z,13.66
2018-04-26T02:06:16.214Z,13.58
2018-04-26T02:08:46.506Z,13.57
2018-04-26T02:11:16.478Z,13.31
2018-04-26T02:13:47.045Z,13.23
2018-04-26T02:16:18.709Z,13.15
2018-04-26T02:18:50.152Z,12.92
2018-04-26T02:21:20.906Z,13.13
2018-04-26T02:23:50.909Z,13.27
2018-04-26T02:26:20.830Z,13.36
2018-04-26T02:28:51.344Z,13.51
2018-04-26T02:31:22.239Z,13.46
2018-04-26T02:33:52.689Z,13.50
2018-04-26T02:36:23.532Z,13.58
2018-04-26T02:38:54.505Z,13.64
2018-04-26T02:41:25.618Z,13.62
2018-04-26T02:43:56.958Z,13.67
2018-04-26T02:46:27.963Z,13.71
2018-04-26T02:48:57.934Z,13.72
2018-04-26T02:51:28.369Z,13.71
2018-04-26T02:53:59.766Z,13.60
2018-04-26T02:56:30.712Z,13.48
2018-04-26T02:59:01.701Z,13.47
2018-04-26T03:01:32.228Z,13.50
2018-04-26T03:04:02.657Z,13.54
2018-04-26T03:06:33.118Z,13.59
2018-04-26T03:09:03.519Z,13.44
2018-04-26T03:11:34.025Z,13.23
2018-04-26T03:14:04.555Z,13.26
2018-04-26T03:16:34.892Z,13.24
2018-04-26T03:19:05.518Z,13.34
2018-04-26T03:21:35.443Z,13.31
2018-04-26T03:24:06.211Z,13.27
2018-04-26T03:26:36.661Z,13.23
2018-04-26T03:29:07.222Z,13.13
2018-04-26T03:31:37.165Z,13.15
2018-04-26T03:34:08.029Z,13.09
2018-04-26T03:36:38.665Z,13.11
2018-04-26T03:39:09.325Z,12.92
2018-04-26T03:41:39.582Z,13.00
2018-04-26T03:44:10.393Z,13.00
2018-04-26T03:46:41.044Z,13.02
2018-04-26T03:49:11.890Z,13.15
2018-04-26T03:51:42.719Z,13.27
2018-04-26T03:54:13.148Z,13.29
2018-04-26T03:56:43.544Z,13.32
2018-04-26T03:59:14.107Z,13.38
2018-04-26T04:01:56.615Z,13.50
2018-04-26T04:04:38.963Z,13.51
2018-04-26T04:07:09.576Z,13.59
2018-04-26T04:09:40.188Z,13.67
2018-04-26T04:12:10.630Z,13.71
2018-04-26T04:14:41.152Z,13.74
2018-04-26T04:17:12.208Z,13.87
2018-04-26T04:19:43.186Z,13.84
2018-04-26T04:22:13.656Z,13.90
2018-04-26T04:24:46.655Z,14.01
2018-04-26T04:27:18.061Z,14.19
2018-04-26T04:29:48.528Z,14.40
2018-04-26T04:32:19.257Z,14.55
2018-04-26T04:34:49.376Z,14.75
2018-04-26T04:37:19.724Z,14.88
2018-04-26T04:39:50.112Z,15.07
2018-04-26T04:42:20.631Z,15.21
2018-04-26T04:44:51.161Z,15.32
2018-04-26T04:47:21.426Z,15.51
2018-04-26T04:49:52.032Z,15.68
2018-04-26T04:52:22.479Z,15.95
2018-04-26T04:54:53.107Z,16.07
2018-04-26T04:57:23.633Z,16.35
2018-04-26T04:59:53.451Z,16.41
2018-04-26T05:02:23.968Z,16.80
2018-04-26T05:04:54.577Z,16.98
2018-04-26T05:07:25.957Z,17.04
2018-04-26T05:09:56.634Z,17.14
2018-04-26T05:12:27.342Z,17.25
2018-04-26T05:14:57.786Z,17.35
2018-04-26T05:17:29.388Z,17.57
2018-04-26T05:19:59.834Z,17.65
2018-04-26T05:22:30.652Z,17.79
2018-04-26T05:25:01.486Z,17.97
2018-04-26T05:27:32.618Z,18.31
2018-04-26T05:30:03.655Z,18.58
2018-04-26T05:32:34.533Z,18.84
2018-04-26T05:35:05.061Z,19.11
2018-04-26T05:37:35.495Z,19.29
2018-04-26T05:40:06.135Z,19.37
2018-04-26T05:42:36.857Z,19.41
2018-04-26T05:45:07.800Z,19.44
2018-04-26T05:47:39.031Z,19.55
2018-04-26T05:50:10.141Z,19.99
2018-04-26T05:52:40.722Z,20.21
2018-04-26T05:55:11.572Z,20.20
2018-04-26T05:57:42.195Z,20.19
2018-04-26T06:00:12.781Z,20.11
2018-04-26T06:02:43.235Z,20.26
2018-04-26T06:05:13.836Z,20.18
2018-04-26T06:07:44.406Z,20.14
2018-04-26T06:10:15.073Z,20.29
2018-04-26T06:12:46.023Z,20.52
2018-04-26T06:15:17.224Z,20.66
2018-04-26T06:17:48.121Z,20.90
2018-04-26T06:20:18.390Z,21.14
2018-04-26T06:22:49.005Z,21.21
2018-04-26T06:25:19.683Z,21.09
2018-04-26T06:27:50.198Z,21.41
2018-04-26T06:30:20.196Z,21.67
2018-04-26T06:32:50.538Z,21.73
2018-04-26T06:35:20.928Z,22.00
2018-04-26T06:37:51.875Z,22.04
2018-04-26T06:40:22.085Z,22.25
2018-04-26T06:42:52.543Z,22.28
2018-04-26T06:45:23.278Z,22.11
2018-04-26T06:47:54.035Z,22.31
2018-04-26T06:50:24.353Z,22.70
2018-04-26T06:52:54.353Z,22.76
2018-04-26T06:55:24.751Z,22.90
2018-04-26T06:57:55.179Z,23.22
2018-04-26T07:00:25.071Z,23.40
2018-04-26T07:02:55.038Z,23.45
2018-04-26T07:05:25.663Z,23.66
2018-04-26T07:07:56.108Z,23.57
2018-04-26T07:10:26.020Z,24.10
2018-04-26T07:12:57.042Z,24.39
2018-04-26T07:15:27.749Z,24.38
2018-04-26T07:17:58.289Z,24.30
2018-04-26T07:20:28.562Z,24.26
2018-04-26T07:22:59.301Z,24.38
2018-04-26T07:25:29.915Z,24.41
2018-04-26T07:28:00.889Z,24.51
2018-04-26T07:30:31.289Z,24.51
2018-04-26T07:33:02.027Z,24.92
2018-04-26T07:35:32.390Z,25.17
2018-04-26T07:38:02.263Z,25.31
2018-04-26T07:40:32.903Z,25.47
2018-04-26T07:43:04.369Z,25.59
2018-04-26T07:45:34.623Z,26.05
2018-04-26T07:48:05.320Z,26.03
2018-04-26T07:50:35.832Z,26.01
2018-04-26T07:53:06.693Z,26.16
2018-04-26T07:55:37.832Z,26.34
2018-04-26T07:58:08.204Z,26.47
2018-04-26T08:00:38.616Z,26.80
2018-04-26T08:03:09.731Z,26.81
2018-04-26T08:05:40.451Z,26.81
2018-04-26T08:08:10.840Z,27.06
2018-04-26T08:10:41.498Z,27.49
2018-04-26T08:13:12.370Z,27.53
2018-04-26T08:15:42.942Z,27.98
2018-04-26T08:18:13.243Z,28.22
2018-04-26T08:20:43.992Z,27.70
2018-04-26T08:23:14.352Z,27.88
2018-04-26T08:25:45.577Z,27.70
2018-04-26T08:28:16.434Z,28.12
2018-04-26T08:30:47.171Z,28.67
2018-04-26T08:33:17.088Z,28.83
2018-04-26T08:35:47.620Z,28.57
2018-04-26T08:38:18.782Z,28.51
2018-04-26T08:40:49.381Z,28.82
2018-04-26T08:43:20.114Z,28.75
2018-04-26T08:45:50.645Z,28.83
2018-04-26T08:48:20.667Z,29.32
2018-04-26T08:50:51.352Z,29.92
2018-04-26T08:53:21.992Z,29.83
2018-04-26T08:55:52.460Z,30.44
2018-04-26T08:58:22.989Z,30.56
2018-04-26T09:00:53.966Z,30.62
2018-04-26T09:03:24.354Z,30.63
2018-04-26T09:05:54.795Z,30.48
2018-04-26T09:08:25.178Z,30.72
2018-04-26T09:10:55.305Z,30.54
2018-04-26T09:13:26.240Z,30.00
2018-04-26T09:15:56.416Z,30.61
2018-04-26T09:18:26.736Z,30.54
2018-04-26T09:20:57.153Z,30.49
2018-04-26T09:23:27.646Z,30.85
2018-04-26T09:25:58.215Z,30.97
2018-04-26T09:28:28.828Z,31.62
2018-04-26T09:30:59.339Z,31.90
2018-04-26T09:33:29.294Z,32.17
2018-04-26T09:35:59.203Z,31.83
2018-04-26T09:38:30.148Z,32.27
2018-04-26T09:41:00.633Z,32.66
2018-04-26T09:43:31.436Z,32.42
2018-04-26T09:46:02.448Z,32.55
2018-04-26T09:48:32.905Z,32.40
2018-04-26T09:51:03.492Z,32.42
2018-04-26T09:53:34.351Z,32.15
2018-04-26T09:56:05.467Z,31.67
2018-04-26T09:58:36.485Z,32.61
2018-04-26T10:01:10.588Z,33.31
2018-04-26T10:03:41.782Z,33.43
2018-04-26T10:06:27.291Z,33.41
2018-04-26T10:08:57.299Z,33.12
2018-04-26T10:11:27.821Z,32.89
2018-04-26T10:13:58.357Z,33.06
2018-04-26T10:16:28.773Z,33.17
2018-04-26T10:18:59.010Z,33.18
2018-04-26T10:21:29.504Z,33.24
2018-04-26T10:24:00.205Z,33.28
2018-04-26T10:26:30.759Z,33.14
2018-04-26T10:29:01.420Z,32.56
2018-04-26T10:31:32.024Z,33.14
2018-04-26T10:34:02.863Z,33.66
2018-04-26T10:36:34.044Z,33.90
2018-04-26T10:39:04.782Z,34.04
2018-04-26T10:41:34.790Z,34.01
2018-04-26T10:44:05.521Z,33.96
2018-04-26T10:46:36.126Z,34.99
2018-04-26T10:49:06.082Z,35.08
2018-04-26T10:51:37.068Z,35.12
2018-04-26T10:54:07.810Z,35.38
2018-04-26T10:56:38.284Z,35.60
2018-04-26T10:59:08.918Z,35.62
2018-04-26T11:01:39.150Z,35.74
2018-04-26T11:04:09.955Z,35.95
2018-04-26T11:06:40.301Z,36.11
2018-04-26T11:09:11.170Z,35.82
2018-04-26T11:11:42.934Z,35.74
2018-04-26T11:14:13.503Z,35.58
2018-04-26T11:16:44.001Z,35.17
2018-04-26T11:19:14.368Z,35.73
2018-04-26T11:21:44.951Z,35.90
2018-04-26T11:24:14.927Z,35.81
2018-04-26T11:26:45.781Z,35.65
2018-04-26T11:29:16.566Z,35.20
2018-04-26T11:31:47.149Z,35.75
2018-04-26T11:34:18.150Z,34.91
2018-04-26T11:36:49.092Z,35.48
2018-04-26T11:39:19.752Z,35.63
2018-04-26T11:41:50.360Z,35.51
2018-04-26T11:44:20.883Z,35.49
2018-04-26T11:46:51.808Z,36.16
2018-04-26T11:49:22.258Z,36.42
2018-04-26T11:51:52.796Z,36.45
2018-04-26T11:54:23.571Z,36.14
2018-04-26T11:56:54.472Z,35.56
2018-04-26T11:59:25.360Z,36.01
2018-04-26T12:01:55.862Z,36.11
2018-04-26T12:04:26.381Z,35.88
2018-04-26T12:06:57.025Z,36.09
2018-04-26T12:09:27.736Z,36.10
2018-04-26T12:11:57.661Z,36.28
2018-04-26T12:14:28.049Z,36.84
2018-04-26T12:16:58.512Z,36.93
2018-04-26T12:19:28.822Z,36.62
2018-04-26T12:21:59.285Z,36.74
2018-04-26T12:24:29.464Z,37.06
2018-04-26T12:27:00.097Z,37.03
2018-04-26T12:29:30.821Z,36.76
2018-04-26T12:32:01.279Z,36.90
2018-04-26T12:34:32.080Z,37.47
2018-04-26T12:37:02.755Z,37.79
2018-04-26T12:39:33.174Z,38.30
2018-04-26T12:42:04.326Z,37.94
2018-04-26T12:44:34.640Z,38.00
2018-04-26T12:47:05.515Z,37.87
2018-04-26T12:49:36.412Z,37.10
2018-04-26T12:52:06.632Z,37.10
2018-04-26T12:54:37.359Z,36.77
2018-04-26T12:57:08.404Z,36.59
2018-04-26T12:59:39.319Z,36.67
2018-04-26T13:02:10.203Z,36.65
2018-04-26T13:04:41.141Z,36.58
2018-04-26T13:07:11.297Z,36.70
2018-04-26T13:09:42.021Z,36.30
2018-04-26T13:12:12.796Z,36.60
2018-04-26T13:14:43.708Z,37.17
2018-04-26T13:17:13.750Z,37.38
2018-04-26T13:19:44.313Z,36.97
2018-04-26T13:22:15.412Z,37.17
2018-04-26T13:24:46.050Z,36.28
2018-04-26T13:27:16.731Z,36.45
2018-04-26T13:29:47.348Z,37.06
2018-04-26T13:32:17.958Z,36.77
2018-04-26T13:34:48.658Z,36.62
2018-04-26T13:37:19.471Z,36.12
2018-04-26T13:39:51.190Z,36.47
2018-04-26T13:42:21.979Z,36.92
2018-04-26T13:44:52.598Z,36.93
2018-04-26T13:47:22.712Z,36.77
2018-04-26T13:49:53.559Z,36.80
2018-04-26T13:52:24.215Z,36.49
2018-04-26T13:54:54.776Z,36.73
2018-04-26T13:57:25.445Z,36.71
2018-04-26T13:59:56.380Z,36.29
2018-04-26T14:02:26.923Z,36.92
2018-04-26T14:04:57.536Z,36.77
2018-04-26T14:07:28.479Z,37.21
2018-04-26T14:09:58.731Z,37.61
2018-04-26T14:12:29.104Z,37.60
2018-04-26T14:14:59.463Z,36.82
2018-04-26T14:17:29.403Z,36.78
2018-04-26T14:20:00.219Z,37.32
2018-04-26T14:22:31.242Z,36.54
2018-04-26T14:25:01.586Z,35.78
2018-04-26T14:27:32.620Z,35.67
2018-04-26T14:30:03.360Z,35.78
2018-04-26T14:32:34.433Z,36.33
2018-04-26T14:35:05.787Z,36.09
2018-04-26T14:37:36.970Z,35.88
2018-04-26T14:40:08.057Z,35.62
2018-04-26T14:42:38.628Z,35.80
2018-04-26T14:45:09.531Z,35.78
2018-04-26T14:47:40.488Z,35.84
2018-04-26T14:50:11.343Z,36.15
2018-04-26T14:52:41.710Z,36.48
2018-04-26T14:55:12.534Z,36.42
2018-04-26T14:57:43.389Z,36.45
2018-04-26T15:00:14.069Z,36.36
2018-04-26T15:02:44.738Z,36.56
2018-04-26T15:05:15.411Z,37.09
2018-04-26T15:07:46.144Z,36.95
2018-04-26T15:10:16.759Z,37.03
2018-04-26T15:12:47.381Z,37.06
2018-04-26T15:15:17.719Z,36.49
2018-04-26T15:17:48.572Z,36.51
2018-04-26T15:20:18.751Z,36.98
2018-04-26T15:22:49.414Z,36.68
2018-04-26T15:25:19.896Z,36.80
2018-04-26T15:27:50.234Z,36.79
2018-04-26T15:30:20.071Z,36.30
2018-04-26T15:32:50.827Z,35.99
2018-04-26T15:35:21.821Z,35.85
2018-04-26T15:37:52.599Z,35.84
2018-04-26T15:40:22.877Z,36.07
2018-04-26T15:42:53.610Z,36.06
2018-04-26T15:45:24.559Z,36.00
2018-04-26T15:47:55.219Z,35.52
2018-04-26T15:50:33.523Z,34.93
2018-04-26T15:53:15.418Z,34.60
2018-04-26T15:55:58.032Z,34.08
2018-04-26T15:58:48.531Z,34.05
2018-04-26T16:01:36.726Z,33.48
2018-04-26T16:04:18.580Z,32.95
2018-04-26T16:07:00.568Z,32.75
2018-04-26T16:09:55.121Z,32.18
2018-04-26T16:12:56.802Z,31.56
2018-04-26T16:15:39.134Z,31.31
2018-04-26T16:18:26.685Z,30.58
2018-04-26T16:21:14.218Z,30.11
2018-04-26T16:24:01.906Z,29.48
2018-04-26T16:26:51.606Z,29.23
2018-04-26T16:29:48.095Z,28.95
2018-04-26T16:32:35.373Z,28.63
2018-04-26T16:35:21.457Z,28.43
2018-04-26T16:38:08.999Z,28.12
2018-04-26T16:40:39.855Z,27.55
2018-04-26T16:43:10.489Z,27.34
2018-04-26T16:45:40.772Z,27.03
2018-04-26T16:48:11.384Z,26.77
2018-04-26T16:50:41.748Z,26.97
2018-04-26T16:53:12.233Z,27.01
2018-04-26T16:55:42.796Z,26.60
2018-04-26T16:58:13.391Z,26.25
2018-04-26T17:00:44.074Z,26.25
2018-04-26T17:03:14.525Z,26.36
2018-04-26T17:05:45.025Z,26.39
2018-04-26T17:08:15.788Z,26.38
2018-04-26T17:10:46.263Z,25.72
2018-04-26T17:13:16.923Z,25.07
2018-04-26T17:15:47.615Z,24.70
2018-04-26T17:18:17.971Z,24.45
2018-04-26T17:20:48.697Z,24.41
2018-04-26T17:23:19.529Z,24.12
2018-04-26T17:25:50.922Z,24.03
2018-04-26T17:28:21.759Z,24.11
2018-04-26T17:30:52.355Z,24.14
2018-04-26T17:33:23.542Z,24.07
2018-04-26T17:35:54.312Z,24.17
2018-04-26T17:38:24.159Z,23.98
2018-04-26T17:40:54.798Z,23.92
2018-04-26T17:43:25.425Z,23.77
2018-04-26T17:45:55.964Z,23.81
2018-04-26T17:48:25.975Z,23.86
2018-04-26T17:50:56.584Z,23.79
2018-04-26T17:53:27.311Z,23.73
2018-04-26T17:55:57.879Z,23.61
2018-04-26T17:58:29.086Z,23.63
2018-04-26T18:00:59.628Z,23.66
2018-04-26T18:03:30.242Z,23.28
2018-04-26T18:06:00.822Z,23.04
2018-04-26T18:08:31.510Z,22.90
2018-04-26T18:11:02.158Z,22.82
2018-04-26T18:13:32.714Z,22.85
2018-04-26T18:16:02.524Z,22.87
2018-04-26T18:18:33.528Z,22.84
2018-04-26T18:21:04.100Z,22.45
2018-04-26T18:23:34.891Z,22.33
2018-04-26T18:26:05.882Z,22.01
2018-04-26T18:28:36.528Z,21.89
2018-04-26T18:31:06.320Z,21.83
2018-04-26T18:33:37.070Z,21.79
2018-04-26T18:36:08.149Z,21.46
2018-04-26T18:38:38.806Z,21.19
2018-04-26T18:41:10.591Z,21.01
2018-04-26T18:43:41.320Z,20.89
2018-04-26T18:46:12.133Z,20.66
2018-04-26T18:48:42.700Z,20.41
2018-04-26T18:51:14.189Z,20.46
2018-04-26T18:53:44.732Z,20.68
2018-04-26T18:56:15.728Z,20.50
2018-04-26T18:58:46.406Z,19.94
2018-04-26T19:01:17.670Z,19.58
2018-04-26T19:03:49.299Z,19.48
2018-04-26T19:06:20.591Z,19.45
2018-04-26T19:08:51.856Z,19.25
2018-04-26T19:11:22.892Z,19.05
2018-04-26T19:13:54.900Z,19.07
2018-04-26T19:16:26.156Z,19.03
2018-04-26T19:18:57.319Z,19.05
2018-04-26T19:21:28.693Z,18.97
2018-04-26T19:23:59.789Z,19.06
2018-04-26T19:26:31.048Z,18.93
2018-04-26T19:29:01.682Z,18.75
2018-04-26T19:31:32.390Z,18.50
2018-04-26T19:34:02.797Z,18.49
2018-04-26T19:36:34.118Z,18.49
2018-04-26T19:39:04.345Z,18.56
2018-04-26T19:41:34.998Z,18.56
2018-04-26T19:44:05.710Z,18.64
2018-04-26T19:46:37.312Z,18.58
2018-04-26T19:49:07.761Z,18.65
2018-04-26T19:51:38.873Z,18.74
2018-04-26T19:54:10.574Z,18.72
2018-04-26T19:56:41.206Z,18.52
2018-04-26T19:59:11.841Z,18.38
2018-04-26T20:01:42.475Z,18.13
2018-04-26T20:04:13.201Z,18.09
2018-04-26T20:06:43.831Z,17.92
2018-04-26T20:09:13.779Z,17.99
2018-04-26T20:11:44.207Z,18.00
2018-04-26T20:14:14.954Z,17.92
2018-04-26T20:16:45.675Z,18.16
2018-04-26T20:19:16.474Z,18.06
2018-04-26T20:21:47.449Z,18.09
2018-04-26T20:24:18.432Z,17.86
2018-04-26T20:26:48.745Z,17.88
2018-04-26T20:29:19.321Z,17.68
2018-04-26T20:31:49.260Z,17.70
2018-04-26T20:34:20.347Z,17.75
2018-04-26T20:36:51.181Z,17.91
2018-04-26T20:39:21.348Z,17.71
2018-04-26T20:41:56.303Z,17.68
2018-04-26T20:44:38.199Z,17.85
2018-04-26T20:47:08.935Z,17.77
2018-04-26T20:49:39.864Z,17.95
2018-04-26T20:52:10.292Z,17.98
2018-04-26T20:54:40.794Z,17.99
2018-04-26T20:57:11.008Z,18.03
2018-04-26T20:59:42.277Z,17.77
2018-04-26T21:02:13.167Z,17.71
2018-04-26T21:04:43.891Z,17.67
2018-04-26T21:07:14.905Z,17.54
2018-04-26T21:09:45.876Z,17.57
2018-04-26T21:12:16.406Z,17.62
2018-04-26T21:14:46.847Z,17.64
2018-04-26T21:17:17.591Z,17.68
2018-04-26T21:19:48.413Z,17.81
2018-04-26T21:22:19.051Z,17.82
2018-04-26T21:24:50.124Z,17.82
2018-04-26T21:27:20.727Z,17.88
2018-04-26T21:29:51.585Z,17.92
2018-04-26T21:32:21.568Z,17.86
2018-04-26T21:34:52.417Z,17.83
2018-04-26T21:37:23.586Z,17.77
2018-04-26T21:39:54.512Z,17.63
2018-04-26T21:42:25.452Z,17.70
2018-04-26T21:44:56.408Z,17.56
2018-04-26T21:47:26.995Z,17.43
2018-04-26T21:50:03.367Z,17.14
2018-04-26T21:52:39.848Z,17.08
2018-04-26T21:55:16.444Z,17.08
2018-04-26T21:57:53.274Z,17.12
2018-04-26T22:00:29.248Z,17.09
2018-04-26T22:02:59.971Z,17.05
2018-04-26T22:05:32.541Z,16.80
2018-04-26T22:08:03.177Z,16.66
2018-04-26T22:10:33.813Z,16.80
2018-04-26T22:13:04.042Z,16.93
2018-04-26T22:15:35.365Z,16.80
2018-04-26T22:18:06.023Z,16.64
2018-04-26T22:20:36.542Z,16.65
2018-04-26T22:23:07.091Z,16.89
2018-04-26T22:25:37.661Z,16.66
2018-04-26T22:28:08.579Z,16.43
2018-04-26T22:30:39.501Z,16.39
2018-04-26T22:33:10.401Z,16.44
2018-04-26T22:35:41.145Z,16.41
2018-04-26T22:38:11.387Z,16.25
2018-04-26T22:40:42.001Z,16.27
2018-04-26T22:43:12.119Z,16.11
2018-04-26T22:45:42.622Z,16.04
2018-04-26T22:48:13.199Z,15.99
2018-04-26T22:50:43.614Z,15.93
2018-04-26T22:53:14.250Z,16.03
2018-04-26T22:55:44.664Z,16.06
2018-04-26T22:58:15.649Z,15.93
2018-04-26T23:00:46.242Z,15.94
2018-04-26T23:03:16.772Z,15.83
2018-04-26T23:05:47.509Z,15.77
2018-04-26T23:08:18.041Z,15.58
2018-04-26T23:10:48.887Z,15.59
2018-04-26T23:13:19.209Z,15.51
2018-04-26T23:15:50.483Z,15.55
2018-04-26T23:18:21.441Z,15.66
2018-04-26T23:20:52.012Z,15.64
2018-04-26T23:23:21.982Z,15.66
2018-04-26T23:25:52.777Z,15.74
2018-04-26T23:28:23.551Z,15.74
2018-04-26T23:30:54.338Z,15.79
2018-04-26T23:33:25.019Z,15.72
2018-04-26T23:35:55.620Z,15.76
2018-04-26T23:38:25.728Z,15.77
2018-04-26T23:40:55.640Z,15.83
2018-04-26T23:43:26.365Z,15.77
2018-04-26T23:45:57.414Z,15.79
2018-04-26T23:48:28.154Z,15.93
2018-04-26T23:50:58.475Z,15.96
2018-04-26T23:53:28.603Z,15.82
2018-04-26T23:55:59.001Z,15.76
2018-04-26T23:58:29.456Z,15.60
